Terminal Aerodrome Forecast
Issued by NWS

Home | Current Version | Previous Version | Text Only | Print | Product List | Glossary On
Versions: 1 2 3 4 5 6 7 8 9 10 11 12 13 14 15 16 17 18 19 20 21 22 23 24 25 26 27 28 29 30 31 32 33
644
FTAK31 PAFA 271126
TAFAOT
TAF
PAOT 271126Z 2712/2812 32008KT P6SM BKN017 BKN030
     FM271600 VRB04KT P6SM SCT017 BKN030 BKN100
     FM272200 30006KT P6SM FEW030 SCT100=

USA.gov is the U.S. government's official web portal to all federal, state and local government web resources and services.